sensor_id;sensor_type;location;lat;lon;timestamp;temperature;humidity
3348;DHT22;1687;49.540;8.574;2023-06-19T00:02:07;26.40;41.40
3348;DHT22;1687;49.540;8.574;2023-06-19T00:04:32;26.30;41.60
3348;DHT22;1687;49.540;8.574;2023-06-19T00:07:00;26.30;41.60
3348;DHT22;1687;49.540;8.574;2023-06-19T00:09:26;26.10;41.70
3348;DHT22;1687;49.540;8.574;2023-06-19T00:11:51;26.00;42.10
3348;DHT22;1687;49.540;8.574;2023-06-19T00:14:17;25.90;42.30
3348;DHT22;1687;49.540;8.574;2023-06-19T00:16:43;25.90;42.60
3348;DHT22;1687;49.540;8.574;2023-06-19T00:19:10;25.80;42.80
3348;DHT22;1687;49.540;8.574;2023-06-19T00:21:37;25.70;42.90
3348;DHT22;1687;49.540;8.574;2023-06-19T00:24:03;25.70;43.30
3348;DHT22;1687;49.540;8.574;2023-06-19T00:26:30;25.70;43.50
3348;DHT22;1687;49.540;8.574;2023-06-19T00:28:56;25.60;43.40
3348;DHT22;1687;49.540;8.574;2023-06-19T00:31:21;25.60;43.60
3348;DHT22;1687;49.540;8.574;2023-06-19T00:33:47;25.40;43.70
3348;DHT22;1687;49.540;8.574;2023-06-19T00:36:16;25.40;44.10
3348;DHT22;1687;49.540;8.574;2023-06-19T00:38:45;25.40;44.10
3348;DHT22;1687;49.540;8.574;2023-06-19T00:41:11;25.30;44.20
3348;DHT22;1687;49.540;8.574;2023-06-19T00:43:37;25.20;44.30
3348;DHT22;1687;49.540;8.574;2023-06-19T00:46:03;25.10;44.50
3348;DHT22;1687;49.540;8.574;2023-06-19T00:48:30;25.00;44.70
3348;DHT22;1687;49.540;8.574;2023-06-19T00:50:57;24.90;45.00
3348;DHT22;1687;49.540;8.574;2023-06-19T00:53:23;24.90;45.20
3348;DHT22;1687;49.540;8.574;2023-06-19T00:55:51;24.90;45.30
3348;DHT22;1687;49.540;8.574;2023-06-19T00:58:20;24.80;45.40
3348;DHT22;1687;49.540;8.574;2023-06-19T01:00:47;24.80;45.70
3348;DHT22;1687;49.540;8.574;2023-06-19T01:03:14;24.80;45.80
3348;DHT22;1687;49.540;8.574;2023-06-19T01:05:40;24.90;46.00
3348;DHT22;1687;49.540;8.574;2023-06-19T01:11:17;24.90;46.00
3348;DHT22;1687;49.540;8.574;2023-06-19T01:13:57;25.00;46.00
3348;DHT22;1687;49.540;8.574;2023-06-19T01:16:26;24.90;45.90
3348;DHT22;1687;49.540;8.574;2023-06-19T01:18:53;24.90;46.00
3348;DHT22;1687;49.540;8.574;2023-06-19T01:21:19;24.90;45.90
3348;DHT22;1687;49.540;8.574;2023-06-19T01:23:45;24.80;45.80
3348;DHT22;1687;49.540;8.574;2023-06-19T01:26:12;24.80;45.90
3348;DHT22;1687;49.540;8.574;2023-06-19T01:28:42;24.60;45.90
3348;DHT22;1687;49.540;8.574;2023-06-19T01:31:17;24.50;46.10
3348;DHT22;1687;49.540;8.574;2023-06-19T01:33:47;24.40;46.40
3348;DHT22;1687;49.540;8.574;2023-06-19T01:36:16;24.30;46.60
3348;DHT22;1687;49.540;8.574;2023-06-19T01:38:44;24.30;46.80
3348;DHT22;1687;49.540;8.574;2023-06-19T01:41:11;24.40;46.90
3348;DHT22;1687;49.540;8.574;2023-06-19T01:43:37;24.40;47.00
3348;DHT22;1687;49.540;8.574;2023-06-19T01:46:03;24.50;47.10
3348;DHT22;1687;49.540;8.574;2023-06-19T01:48:29;24.50;47.00
3348;DHT22;1687;49.540;8.574;2023-06-19T01:50:55;24.40;47.10
3348;DHT22;1687;49.540;8.574;2023-06-19T01:53:21;24.40;47.30
3348;DHT22;1687;49.540;8.574;2023-06-19T01:55:47;24.20;47.30
3348;DHT22;1687;49.540;8.574;2023-06-19T01:58:12;24.20;47.50
3348;DHT22;1687;49.540;8.574;2023-06-19T02:00:38;24.20;47.70
3348;DHT22;1687;49.540;8.574;2023-06-19T02:03:04;24.10;47.80
3348;DHT22;1687;49.540;8.574;2023-06-19T02:05:31;24.10;48.10
3348;DHT22;1687;49.540;8.574;2023-06-19T02:07:57;24.10;48.20
3348;DHT22;1687;49.540;8.574;2023-06-19T02:10:23;24.00;48.40
3348;DHT22;1687;49.540;8.574;2023-06-19T02:12:48;24.00;48.50
3348;DHT22;1687;49.540;8.574;2023-06-19T02:15:14;24.10;48.80
3348;DHT22;1687;49.540;8.574;2023-06-19T02:17:40;24.10;48.90
3348;DHT22;1687;49.540;8.574;2023-06-19T02:20:08;24.00;48.90
3348;DHT22;1687;49.540;8.574;2023-06-19T02:22:37;24.00;49.10
3348;DHT22;1687;49.540;8.574;2023-06-19T02:25:04;24.00;49.40
3348;DHT22;1687;49.540;8.574;2023-06-19T02:27:31;24.00;49.50
3348;DHT22;1687;49.540;8.574;2023-06-19T02:29:57;24.00;49.80
3348;DHT22;1687;49.540;8.574;2023-06-19T02:32:23;24.00;49.90
3348;DHT22;1687;49.540;8.574;2023-06-19T02:34:48;24.00;50.00
3348;DHT22;1687;49.540;8.574;2023-06-19T02:37:14;24.00;50.00
3348;DHT22;1687;49.540;8.574;2023-06-19T02:39:40;23.90;50.10
3348;DHT22;1687;49.540;8.574;2023-06-19T02:42:06;23.90;50.10
3348;DHT22;1687;49.540;8.574;2023-06-19T02:44:32;23.90;50.40
3348;DHT22;1687;49.540;8.574;2023-06-19T02:46:58;23.90;50.50
3348;DHT22;1687;49.540;8.574;2023-06-19T02:49:23;23.90;50.50
3348;DHT22;1687;49.540;8.574;2023-06-19T02:51:49;24.00;50.80
3348;DHT22;1687;49.540;8.574;2023-06-19T02:54:15;24.00;50.80
3348;DHT22;1687;49.540;8.574;2023-06-19T02:56:40;24.00;50.70
3348;DHT22;1687;49.540;8.574;2023-06-19T02:59:06;23.90;50.90
3348;DHT22;1687;49.540;8.574;2023-06-19T03:01:32;23.90;51.00
3348;DHT22;1687;49.540;8.574;2023-06-19T03:03:59;23.90;51.10
3348;DHT22;1687;49.540;8.574;2023-06-19T03:06:25;23.90;51.30
3348;DHT22;1687;49.540;8.574;2023-06-19T03:08:51;23.90;51.50
3348;DHT22;1687;49.540;8.574;2023-06-19T03:11:17;24.00;51.70
3348;DHT22;1687;49.540;8.574;2023-06-19T03:13:51;24.00;51.50
3348;DHT22;1687;49.540;8.574;2023-06-19T03:16:17;24.00;51.60
3348;DHT22;1687;49.540;8.574;2023-06-19T03:18:44;23.80;51.70
3348;DHT22;1687;49.540;8.574;2023-06-19T03:21:11;23.80;52.00
3348;DHT22;1687;49.540;8.574;2023-06-19T03:23:40;23.90;52.30
3348;DHT22;1687;49.540;8.574;2023-06-19T03:26:09;24.00;52.50
3348;DHT22;1687;49.540;8.574;2023-06-19T03:28:35;24.00;52.40
3348;DHT22;1687;49.540;8.574;2023-06-19T03:31:01;23.90;52.60
3348;DHT22;1687;49.540;8.574;2023-06-19T03:33:27;24.00;52.90
3348;DHT22;1687;49.540;8.574;2023-06-19T03:35:53;24.10;53.20
3348;DHT22;1687;49.540;8.574;2023-06-19T03:38:19;24.10;53.10
3348;DHT22;1687;49.540;8.574;2023-06-19T03:40:44;24.00;53.20
3348;DHT22;1687;49.540;8.574;2023-06-19T03:43:10;24.00;53.40
3348;DHT22;1687;49.540;8.574;2023-06-19T03:45:36;24.00;53.60
3348;DHT22;1687;49.540;8.574;2023-06-19T03:48:02;23.80;53.80
3348;DHT22;1687;49.540;8.574;2023-06-19T03:50:28;23.70;54.00
3348;DHT22;1687;49.540;8.574;2023-06-19T03:52:53;23.70;54.30
3348;DHT22;1687;49.540;8.574;2023-06-19T03:55:19;23.60;54.50
3348;DHT22;1687;49.540;8.574;2023-06-19T03:57:45;23.50;54.80
3348;DHT22;1687;49.540;8.574;2023-06-19T04:00:11;23.50;55.20
3348;DHT22;1687;49.540;8.574;2023-06-19T04:02:38;23.50;55.50
3348;DHT22;1687;49.540;8.574;2023-06-19T04:05:05;23.50;55.70
3348;DHT22;1687;49.540;8.574;2023-06-19T04:07:31;23.50;55.90
3348;DHT22;1687;49.540;8.574;2023-06-19T04:09:58;23.50;56.00
3348;DHT22;1687;49.540;8.574;2023-06-19T04:12:24;23.40;56.20
3348;DHT22;1687;49.540;8.574;2023-06-19T04:14:49;23.50;56.50
3348;DHT22;1687;49.540;8.574;2023-06-19T04:17:15;23.40;56.60
3348;DHT22;1687;49.540;8.574;2023-06-19T04:19:41;23.40;56.60
3348;DHT22;1687;49.540;8.574;2023-06-19T04:22:07;23.30;56.90
3348;DHT22;1687;49.540;8.574;2023-06-19T04:24:32;23.40;57.20
3348;DHT22;1687;49.540;8.574;2023-06-19T04:26:58;23.40;57.10
3348;DHT22;1687;49.540;8.574;2023-06-19T04:29:24;23.40;57.90
3348;DHT22;1687;49.540;8.574;2023-06-19T04:31:50;23.50;57.40
3348;DHT22;1687;49.540;8.574;2023-06-19T04:34:16;23.50;57.40
3348;DHT22;1687;49.540;8.574;2023-06-19T04:36:46;23.50;57.40
3348;DHT22;1687;49.540;8.574;2023-06-19T04:39:12;23.60;57.60
3348;DHT22;1687;49.540;8.574;2023-06-19T04:41:38;23.60;57.60
3348;DHT22;1687;49.540;8.574;2023-06-19T04:44:05;23.50;57.50
3348;DHT22;1687;49.540;8.574;2023-06-19T04:46:32;23.50;57.70
3348;DHT22;1687;49.540;8.574;2023-06-19T04:48:58;23.50;57.80
3348;DHT22;1687;49.540;8.574;2023-06-19T04:51:23;23.60;58.20
3348;DHT22;1687;49.540;8.574;2023-06-19T04:53:49;23.60;58.00
3348;DHT22;1687;49.540;8.574;2023-06-19T04:56:15;23.70;58.20
3348;DHT22;1687;49.540;8.574;2023-06-19T04:58:41;23.70;57.90
3348;DHT22;1687;49.540;8.574;2023-06-19T05:01:15;23.70;58.00
3348;DHT22;1687;49.540;8.574;2023-06-19T05:03:44;23.70;58.60
3348;DHT22;1687;49.540;8.574;2023-06-19T05:06:11;23.70;58.10
3348;DHT22;1687;49.540;8.574;2023-06-19T05:08:37;23.60;58.10
3348;DHT22;1687;49.540;8.574;2023-06-19T05:11:03;23.60;58.10
3348;DHT22;1687;49.540;8.574;2023-06-19T05:13:29;23.60;58.40
3348;DHT22;1687;49.540;8.574;2023-06-19T05:15:54;23.70;58.40
3348;DHT22;1687;49.540;8.574;2023-06-19T05:18:22;23.70;58.40
3348;DHT22;1687;49.540;8.574;2023-06-19T05:20:47;23.80;58.50
3348;DHT22;1687;49.540;8.574;2023-06-19T05:23:13;23.80;58.50
3348;DHT22;1687;49.540;8.574;2023-06-19T05:25:39;23.80;58.40
3348;DHT22;1687;49.540;8.574;2023-06-19T05:28:04;23.80;58.40
3348;DHT22;1687;49.540;8.574;2023-06-19T05:30:30;23.70;58.40
3348;DHT22;1687;49.540;8.574;2023-06-19T05:32:56;23.80;58.70
3348;DHT22;1687;49.540;8.574;2023-06-19T05:35:22;23.70;58.50
3348;DHT22;1687;49.540;8.574;2023-06-19T05:37:48;23.80;58.80
3348;DHT22;1687;49.540;8.574;2023-06-19T05:40:13;23.80;58.60
3348;DHT22;1687;49.540;8.574;2023-06-19T05:42:40;23.90;58.80
3348;DHT22;1687;49.540;8.574;2023-06-19T05:45:06;23.90;58.80
3348;DHT22;1687;49.540;8.574;2023-06-19T05:47:32;23.90;58.80
3348;DHT22;1687;49.540;8.574;2023-06-19T05:49:58;24.00;59.00
3348;DHT22;1687;49.540;8.574;2023-06-19T05:52:24;24.00;59.00
3348;DHT22;1687;49.540;8.574;2023-06-19T05:54:50;24.10;59.00
3348;DHT22;1687;49.540;8.574;2023-06-19T05:57:16;24.20;58.90
3348;DHT22;1687;49.540;8.574;2023-06-19T05:59:46;24.30;59.00
3348;DHT22;1687;49.540;8.574;2023-06-19T06:02:13;24.30;58.80
3348;DHT22;1687;49.540;8.574;2023-06-19T06:04:38;24.40;59.00
3348;DHT22;1687;49.540;8.574;2023-06-19T06:07:04;24.50;59.00
3348;DHT22;1687;49.540;8.574;2023-06-19T06:09:30;24.50;58.90
3348;DHT22;1687;49.540;8.574;2023-06-19T06:11:56;24.50;58.90
3348;DHT22;1687;49.540;8.574;2023-06-19T06:14:23;24.60;59.00
3348;DHT22;1687;49.540;8.574;2023-06-19T06:16:49;24.60;58.80
3348;DHT22;1687;49.540;8.574;2023-06-19T06:19:15;24.70;58.90
3348;DHT22;1687;49.540;8.574;2023-06-19T06:21:41;24.80;58.80
3348;DHT22;1687;49.540;8.574;2023-06-19T06:24:06;24.80;58.80
3348;DHT22;1687;49.540;8.574;2023-06-19T06:26:32;24.70;58.80
3348;DHT22;1687;49.540;8.574;2023-06-19T06:28:58;24.80;59.10
3348;DHT22;1687;49.540;8.574;2023-06-19T06:31:24;24.90;59.00
3348;DHT22;1687;49.540;8.574;2023-06-19T06:33:50;25.00;59.00
3348;DHT22;1687;49.540;8.574;2023-06-19T06:36:16;25.00;58.90
3348;DHT22;1687;49.540;8.574;2023-06-19T06:38:42;25.10;59.10
3348;DHT22;1687;49.540;8.574;2023-06-19T06:41:07;25.30;59.10
3348;DHT22;1687;49.540;8.574;2023-06-19T06:43:33;25.40;59.00
3348;DHT22;1687;49.540;8.574;2023-06-19T06:45:59;25.50;59.00
3348;DHT22;1687;49.540;8.574;2023-06-19T06:48:25;25.60;58.70
3348;DHT22;1687;49.540;8.574;2023-06-19T06:50:51;25.60;58.80
3348;DHT22;1687;49.540;8.574;2023-06-19T06:53:25;25.80;58.70
3348;DHT22;1687;49.540;8.574;2023-06-19T06:55:51;25.80;58.70
3348;DHT22;1687;49.540;8.574;2023-06-19T06:58:17;25.80;58.40
3348;DHT22;1687;49.540;8.574;2023-06-19T07:00:44;25.90;58.70
3348;DHT22;1687;49.540;8.574;2023-06-19T07:03:10;25.90;58.30
3348;DHT22;1687;49.540;8.574;2023-06-19T07:05:36;25.90;58.30
3348;DHT22;1687;49.540;8.574;2023-06-19T07:08:02;25.80;58.30
3348;DHT22;1687;49.540;8.574;2023-06-19T07:10:29;25.90;58.50
3348;DHT22;1687;49.540;8.574;2023-06-19T07:12:55;26.00;58.30
3348;DHT22;1687;49.540;8.574;2023-06-19T07:15:21;26.00;58.20
3348;DHT22;1687;49.540;8.574;2023-06-19T07:17:47;26.10;58.40
3348;DHT22;1687;49.540;8.574;2023-06-19T07:20:13;26.20;58.20
3348;DHT22;1687;49.540;8.574;2023-06-19T07:22:40;26.20;58.00
3348;DHT22;1687;49.540;8.574;2023-06-19T07:25:07;26.20;58.20
3348;DHT22;1687;49.540;8.574;2023-06-19T07:27:33;26.30;58.20
3348;DHT22;1687;49.540;8.574;2023-06-19T07:29:59;26.40;58.10
3348;DHT22;1687;49.540;8.574;2023-06-19T07:32:24;26.40;57.80
3348;DHT22;1687;49.540;8.574;2023-06-19T07:34:50;26.50;58.10
3348;DHT22;1687;49.540;8.574;2023-06-19T07:37:16;26.60;58.00
3348;DHT22;1687;49.540;8.574;2023-06-19T07:39:45;26.70;58.00
3348;DHT22;1687;49.540;8.574;2023-06-19T07:42:15;26.80;57.80
3348;DHT22;1687;49.540;8.574;2023-06-19T07:44:42;27.00;58.00
3348;DHT22;1687;49.540;8.574;2023-06-19T07:47:08;27.20;57.90
3348;DHT22;1687;49.540;8.574;2023-06-19T07:49:35;27.30;57.40
3348;DHT22;1687;49.540;8.574;2023-06-19T07:52:01;27.40;57.60
3348;DHT22;1687;49.540;8.574;2023-06-19T07:54:30;27.60;57.50
3348;DHT22;1687;49.540;8.574;2023-06-19T07:56:56;27.60;57.20
3348;DHT22;1687;49.540;8.574;2023-06-19T07:59:22;27.70;57.20
3348;DHT22;1687;49.540;8.574;2023-06-19T08:01:48;27.70;57.10
3348;DHT22;1687;49.540;8.574;2023-06-19T08:04:14;27.70;56.90
3348;DHT22;1687;49.540;8.574;2023-06-19T08:06:40;27.60;56.90
3348;DHT22;1687;49.540;8.574;2023-06-19T08:09:05;27.60;57.00
3348;DHT22;1687;49.540;8.574;2023-06-19T08:11:31;27.50;56.90
3348;DHT22;1687;49.540;8.574;2023-06-19T08:13:57;27.30;56.80
3348;DHT22;1687;49.540;8.574;2023-06-19T08:16:25;27.30;57.10
3348;DHT22;1687;49.540;8.574;2023-06-19T08:18:51;27.50;57.20
3348;DHT22;1687;49.540;8.574;2023-06-19T08:21:17;27.50;56.70
3348;DHT22;1687;49.540;8.574;2023-06-19T08:23:43;27.30;56.80
3348;DHT22;1687;49.540;8.574;2023-06-19T08:26:10;27.10;56.80
3348;DHT22;1687;49.540;8.574;2023-06-19T08:28:37;27.00;57.00
3348;DHT22;1687;49.540;8.574;2023-06-19T08:31:02;27.00;57.30
3348;DHT22;1687;49.540;8.574;2023-06-19T08:33:28;27.10;57.30
3348;DHT22;1687;49.540;8.574;2023-06-19T08:35:54;27.20;57.30
3348;DHT22;1687;49.540;8.574;2023-06-19T08:38:19;27.20;57.20
3348;DHT22;1687;49.540;8.574;2023-06-19T08:40:45;27.10;57.10
3348;DHT22;1687;49.540;8.574;2023-06-19T08:43:11;27.00;57.20
3348;DHT22;1687;49.540;8.574;2023-06-19T08:45:37;27.10;57.50
3348;DHT22;1687;49.540;8.574;2023-06-19T08:48:03;27.20;57.30
3348;DHT22;1687;49.540;8.574;2023-06-19T08:50:32;27.20;57.20
3348;DHT22;1687;49.540;8.574;2023-06-19T08:52:58;27.30;57.30
3348;DHT22;1687;49.540;8.574;2023-06-19T08:55:24;27.30;57.30
3348;DHT22;1687;49.540;8.574;2023-06-19T08:57:50;27.40;57.30
3348;DHT22;1687;49.540;8.574;2023-06-19T09:00:25;27.50;57.40
3348;DHT22;1687;49.540;8.574;2023-06-19T09:03:00;27.70;57.20
3348;DHT22;1687;49.540;8.574;2023-06-19T09:05:27;28.00;57.20
3348;DHT22;1687;49.540;8.574;2023-06-19T09:07:58;28.10;57.10
3348;DHT22;1687;49.540;8.574;2023-06-19T09:10:26;28.10;56.90
3348;DHT22;1687;49.540;8.574;2023-06-19T09:13:01;28.00;56.80
3348;DHT22;1687;49.540;8.574;2023-06-19T09:15:34;28.20;56.90
3348;DHT22;1687;49.540;8.574;2023-06-19T09:18:05;28.10;56.60
3348;DHT22;1687;49.540;8.574;2023-06-19T09:20:39;28.20;56.70
3348;DHT22;1687;49.540;8.574;2023-06-19T09:23:13;28.40;56.70
3348;DHT22;1687;49.540;8.574;2023-06-19T09:25:50;28.50;56.30
3348;DHT22;1687;49.540;8.574;2023-06-19T09:28:22;28.50;56.40
3348;DHT22;1687;49.540;8.574;2023-06-19T09:33:20;28.70;56.10
3348;DHT22;1687;49.540;8.574;2023-06-19T09:35:45;28.80;56.10
3348;DHT22;1687;49.540;8.574;2023-06-19T09:38:12;28.70;55.80
3348;DHT22;1687;49.540;8.574;2023-06-19T09:40:39;28.70;56.00
3348;DHT22;1687;49.540;8.574;2023-06-19T09:43:05;28.70;55.90
3348;DHT22;1687;49.540;8.574;2023-06-19T09:45:32;28.70;55.80
3348;DHT22;1687;49.540;8.574;2023-06-19T09:47:59;28.70;55.80
3348;DHT22;1687;49.540;8.574;2023-06-19T09:50:26;28.60;55.70
3348;DHT22;1687;49.540;8.574;2023-06-19T09:52:54;28.50;55.70
3348;DHT22;1687;49.540;8.574;2023-06-19T09:55:22;28.60;55.80
3348;DHT22;1687;49.540;8.574;2023-06-19T09:57:49;28.60;55.60
3348;DHT22;1687;49.540;8.574;2023-06-19T10:00:15;28.60;55.60
3348;DHT22;1687;49.540;8.574;2023-06-19T10:02:47;28.60;55.50
3348;DHT22;1687;49.540;8.574;2023-06-19T10:05:14;28.60;55.50
3348;DHT22;1687;49.540;8.574;2023-06-19T10:07:44;28.60;55.40
3348;DHT22;1687;49.540;8.574;2023-06-19T10:10:22;28.80;55.70
3348;DHT22;1687;49.540;8.574;2023-06-19T10:12:49;29.00;55.40
3348;DHT22;1687;49.540;8.574;2023-06-19T10:15:20;29.00;55.20
3348;DHT22;1687;49.540;8.574;2023-06-19T10:18:00;29.00;55.10
3348;DHT22;1687;49.540;8.574;2023-06-19T10:20:30;29.00;55.10
3348;DHT22;1687;49.540;8.574;2023-06-19T10:23:14;29.20;55.00
3348;DHT22;1687;49.540;8.574;2023-06-19T10:25:47;29.10;54.70
3348;DHT22;1687;49.540;8.574;2023-06-19T10:28:33;29.00;54.80
3348;DHT22;1687;49.540;8.574;2023-06-19T10:31:04;29.20;55.00
3348;DHT22;1687;49.540;8.574;2023-06-19T10:33:32;29.60;55.20
3348;DHT22;1687;49.540;8.574;2023-06-19T10:36:00;29.90;54.60
3348;DHT22;1687;49.540;8.574;2023-06-19T10:38:26;30.00;54.40
3348;DHT22;1687;49.540;8.574;2023-06-19T10:40:52;30.00;54.10
3348;DHT22;1687;49.540;8.574;2023-06-19T10:43:22;30.00;53.80
3348;DHT22;1687;49.540;8.574;2023-06-19T10:45:51;29.90;53.80
3348;DHT22;1687;49.540;8.574;2023-06-19T10:48:23;30.10;54.10
3348;DHT22;1687;49.540;8.574;2023-06-19T10:50:50;30.30;53.70
3348;DHT22;1687;49.540;8.574;2023-06-19T10:53:25;30.30;53.60
3348;DHT22;1687;49.540;8.574;2023-06-19T10:55:59;30.40;53.50
3348;DHT22;1687;49.540;8.574;2023-06-19T10:58:26;30.40;53.30
3348;DHT22;1687;49.540;8.574;2023-06-19T11:00:52;30.30;53.00
3348;DHT22;1687;49.540;8.574;2023-06-19T11:03:19;30.20;53.00
3348;DHT22;1687;49.540;8.574;2023-06-19T11:05:47;30.20;53.10
3348;DHT22;1687;49.540;8.574;2023-06-19T11:08:20;30.30;52.80
3348;DHT22;1687;49.540;8.574;2023-06-19T11:10:48;30.30;52.90
3348;DHT22;1687;49.540;8.574;2023-06-19T11:13:15;30.30;52.80
3348;DHT22;1687;49.540;8.574;2023-06-19T11:15:42;30.40;52.70
3348;DHT22;1687;49.540;8.574;2023-06-19T11:18:08;30.40;52.60
3348;DHT22;1687;49.540;8.574;2023-06-19T11:23:15;30.60;52.50
3348;DHT22;1687;49.540;8.574;2023-06-19T11:25:41;30.60;52.20
3348;DHT22;1687;49.540;8.574;2023-06-19T11:28:14;30.70;52.10
3348;DHT22;1687;49.540;8.574;2023-06-19T11:30:41;30.60;51.80
3348;DHT22;1687;49.540;8.574;2023-06-19T11:35:47;30.60;51.70
3348;DHT22;1687;49.540;8.574;2023-06-19T11:38:24;30.60;51.80
3348;DHT22;1687;49.540;8.574;2023-06-19T11:40:51;30.70;51.80
3348;DHT22;1687;49.540;8.574;2023-06-19T11:43:25;30.70;51.60
3348;DHT22;1687;49.540;8.574;2023-06-19T11:46:03;30.70;51.30
3348;DHT22;1687;49.540;8.574;2023-06-19T11:48:29;30.80;51.20
3348;DHT22;1687;49.540;8.574;2023-06-19T11:50:55;30.80;51.00
3348;DHT22;1687;49.540;8.574;2023-06-19T11:53:22;30.70;50.70
3348;DHT22;1687;49.540;8.574;2023-06-19T11:55:49;30.70;50.80
3348;DHT22;1687;49.540;8.574;2023-06-19T11:58:15;30.70;50.90
3348;DHT22;1687;49.540;8.574;2023-06-19T12:00:41;31.00;51.70
3348;DHT22;1687;49.540;8.574;2023-06-19T12:03:08;31.30;50.90
3348;DHT22;1687;49.540;8.574;2023-06-19T12:05:35;31.40;50.50
3348;DHT22;1687;49.540;8.574;2023-06-19T12:08:02;31.60;50.70
3348;DHT22;1687;49.540;8.574;2023-06-19T12:10:28;31.70;50.30
3348;DHT22;1687;49.540;8.574;2023-06-19T12:12:54;31.60;49.80
3348;DHT22;1687;49.540;8.574;2023-06-19T12:15:20;31.40;49.80
3348;DHT22;1687;49.540;8.574;2023-06-19T12:17:46;31.30;49.70
3348;DHT22;1687;49.540;8.574;2023-06-19T12:20:12;31.30;49.90
3348;DHT22;1687;49.540;8.574;2023-06-19T12:22:41;31.50;50.00
3348;DHT22;1687;49.540;8.574;2023-06-19T12:25:08;31.50;49.60
3348;DHT22;1687;49.540;8.574;2023-06-19T12:27:34;31.40;49.40
3348;DHT22;1687;49.540;8.574;2023-06-19T12:29:59;31.30;49.60
3348;DHT22;1687;49.540;8.574;2023-06-19T12:32:25;31.40;49.50
3348;DHT22;1687;49.540;8.574;2023-06-19T12:34:51;31.30;49.30
3348;DHT22;1687;49.540;8.574;2023-06-19T12:37:19;31.40;49.50
3348;DHT22;1687;49.540;8.574;2023-06-19T12:39:46;31.50;49.20
3348;DHT22;1687;49.540;8.574;2023-06-19T12:42:12;31.60;49.40
3348;DHT22;1687;49.540;8.574;2023-06-19T12:44:39;31.80;49.20
3348;DHT22;1687;49.540;8.574;2023-06-19T12:47:05;31.60;48.90
3348;DHT22;1687;49.540;8.574;2023-06-19T12:49:31;31.60;49.20
3348;DHT22;1687;49.540;8.574;2023-06-19T12:51:57;31.90;49.30
3348;DHT22;1687;49.540;8.574;2023-06-19T12:54:23;32.10;49.10
3348;DHT22;1687;49.540;8.574;2023-06-19T12:56:49;32.20;49.00
3348;DHT22;1687;49.540;8.574;2023-06-19T12:59:15;32.30;48.90
3348;DHT22;1687;49.540;8.574;2023-06-19T13:01:42;32.50;48.90
3348;DHT22;1687;49.540;8.574;2023-06-19T13:04:07;32.70;49.00
3348;DHT22;1687;49.540;8.574;2023-06-19T13:06:33;32.80;48.70
3348;DHT22;1687;49.540;8.574;2023-06-19T13:09:01;33.10;48.80
3348;DHT22;1687;49.540;8.574;2023-06-19T13:11:27;33.10;48.30
3348;DHT22;1687;49.540;8.574;2023-06-19T13:13:53;33.20;48.40
3348;DHT22;1687;49.540;8.574;2023-06-19T13:16:19;33.30;48.30
3348;DHT22;1687;49.540;8.574;2023-06-19T13:18:45;33.50;48.30
3348;DHT22;1687;49.540;8.574;2023-06-19T13:21:11;33.70;48.00
3348;DHT22;1687;49.540;8.574;2023-06-19T13:23:37;34.10;48.00
3348;DHT22;1687;49.540;8.574;2023-06-19T13:26:05;34.30;47.80
3348;DHT22;1687;49.540;8.574;2023-06-19T13:28:31;34.50;47.20
3348;DHT22;1687;49.540;8.574;2023-06-19T13:30:57;34.50;46.90
3348;DHT22;1687;49.540;8.574;2023-06-19T13:33:23;35.10;47.40
3348;DHT22;1687;49.540;8.574;2023-06-19T13:35:48;36.00;46.70
3348;DHT22;1687;49.540;8.574;2023-06-19T13:38:14;35.90;45.70
3348;DHT22;1687;49.540;8.574;2023-06-19T13:40:41;35.40;45.20
3348;DHT22;1687;49.540;8.574;2023-06-19T13:43:07;35.30;45.40
3348;DHT22;1687;49.540;8.574;2023-06-19T13:45:33;35.10;45.00
3348;DHT22;1687;49.540;8.574;2023-06-19T13:48:00;34.90;45.00
3348;DHT22;1687;49.540;8.574;2023-06-19T13:50:27;34.70;45.10
3348;DHT22;1687;49.540;8.574;2023-06-19T13:52:52;34.60;45.00
3348;DHT22;1687;49.540;8.574;2023-06-19T13:55:19;34.30;44.90
3348;DHT22;1687;49.540;8.574;2023-06-19T13:57:45;34.10;45.00
3348;DHT22;1687;49.540;8.574;2023-06-19T14:00:12;34.00;45.30
3348;DHT22;1687;49.540;8.574;2023-06-19T14:02:38;34.00;45.80
3348;DHT22;1687;49.540;8.574;2023-06-19T14:05:05;33.70;45.10
3348;DHT22;1687;49.540;8.574;2023-06-19T14:07:32;33.40;45.10
3348;DHT22;1687;49.540;8.574;2023-06-19T14:09:58;33.40;45.60
3348;DHT22;1687;49.540;8.574;2023-06-19T14:12:24;33.80;45.70
3348;DHT22;1687;49.540;8.574;2023-06-19T14:14:50;34.00;45.50
3348;DHT22;1687;49.540;8.574;2023-06-19T14:17:17;34.30;45.60
3348;DHT22;1687;49.540;8.574;2023-06-19T14:19:42;35.00;46.50
3348;DHT22;1687;49.540;8.574;2023-06-19T14:22:08;35.30;45.20
3348;DHT22;1687;49.540;8.574;2023-06-19T14:24:34;35.30;45.10
3348;DHT22;1687;49.540;8.574;2023-06-19T14:27:00;35.50;45.10
3348;DHT22;1687;49.540;8.574;2023-06-19T14:29:25;35.30;44.50
3348;DHT22;1687;49.540;8.574;2023-06-19T14:31:51;35.10;44.70
3348;DHT22;1687;49.540;8.574;2023-06-19T14:34:19;34.90;44.60
3348;DHT22;1687;49.540;8.574;2023-06-19T14:36:45;34.60;44.40
3348;DHT22;1687;49.540;8.574;2023-06-19T14:39:11;34.30;44.50
3348;DHT22;1687;49.540;8.574;2023-06-19T14:41:37;33.90;44.40
3348;DHT22;1687;49.540;8.574;2023-06-19T14:44:04;33.40;44.30
3348;DHT22;1687;49.540;8.574;2023-06-19T14:46:31;33.20;45.00
3348;DHT22;1687;49.540;8.574;2023-06-19T14:48:57;33.30;45.40
3348;DHT22;1687;49.540;8.574;2023-06-19T14:51:26;33.60;45.30
3348;DHT22;1687;49.540;8.574;2023-06-19T14:53:52;33.80;45.20
3348;DHT22;1687;49.540;8.574;2023-06-19T14:56:18;34.00;45.30
3348;DHT22;1687;49.540;8.574;2023-06-19T14:58:44;33.90;44.80
3348;DHT22;1687;49.540;8.574;2023-06-19T15:01:10;34.20;45.30
3348;DHT22;1687;49.540;8.574;2023-06-19T15:03:36;34.70;45.20
3348;DHT22;1687;49.540;8.574;2023-06-19T15:06:03;35.70;45.30
3348;DHT22;1687;49.540;8.574;2023-06-19T15:08:29;36.50;44.60
3348;DHT22;1687;49.540;8.574;2023-06-19T15:10:56;36.70;43.70
3348;DHT22;1687;49.540;8.574;2023-06-19T15:13:22;36.30;43.40
3348;DHT22;1687;49.540;8.574;2023-06-19T15:15:48;35.90;43.40
3348;DHT22;1687;49.540;8.574;2023-06-19T15:18:16;35.50;43.20
3348;DHT22;1687;49.540;8.574;2023-06-19T15:20:41;35.10;43.30
3348;DHT22;1687;49.540;8.574;2023-06-19T15:23:08;35.00;43.80
3348;DHT22;1687;49.540;8.574;2023-06-19T15:25:33;36.20;44.40
3348;DHT22;1687;49.540;8.574;2023-06-19T15:27:59;38.10;43.80
3348;DHT22;1687;49.540;8.574;2023-06-19T15:30:26;39.60;42.80
3348;DHT22;1687;49.540;8.574;2023-06-19T15:32:51;39.90;41.70
3348;DHT22;1687;49.540;8.574;2023-06-19T15:35:17;40.50;41.30
3348;DHT22;1687;49.540;8.574;2023-06-19T15:37:43;40.20;40.40
3348;DHT22;1687;49.540;8.574;2023-06-19T15:40:09;39.90;40.20
3348;DHT22;1687;49.540;8.574;2023-06-19T15:42:35;38.70;39.60
3348;DHT22;1687;49.540;8.574;2023-06-19T15:45:02;37.70;40.20
3348;DHT22;1687;49.540;8.574;2023-06-19T15:47:28;37.00;40.60
3348;DHT22;1687;49.540;8.574;2023-06-19T15:49:54;36.40;40.60
3348;DHT22;1687;49.540;8.574;2023-06-19T15:52:20;35.70;40.90
3348;DHT22;1687;49.540;8.574;2023-06-19T15:54:46;35.10;41.40
3348;DHT22;1687;49.540;8.574;2023-06-19T15:57:12;34.70;41.60
3348;DHT22;1687;49.540;8.574;2023-06-19T15:59:39;34.40;42.10
3348;DHT22;1687;49.540;8.574;2023-06-19T16:02:05;34.80;42.80
3348;DHT22;1687;49.540;8.574;2023-06-19T16:04:31;34.90;42.40
3348;DHT22;1687;49.540;8.574;2023-06-19T16:06:56;35.00;42.70
3348;DHT22;1687;49.540;8.574;2023-06-19T16:09:22;35.00;42.70
3348;DHT22;1687;49.540;8.574;2023-06-19T16:11:47;35.00;42.50